createdAt,value
2024-03-24T00:03:39.770Z,7.32
2024-03-24T00:08:58.853Z,7.29
2024-03-24T00:14:18.799Z,7.26
2024-03-24T00:19:38.663Z,7.28
2024-03-24T00:24:57.809Z,7.26
2024-03-24T00:30:17.496Z,7.25
2024-03-24T00:35:36.621Z,7.21
2024-03-24T00:40:55.439Z,7.21
2024-03-24T00:46:14.553Z,7.19
2024-03-24T00:51:33.270Z,7.21
2024-03-24T00:56:52.396Z,7.19
2024-03-24T01:08:46.316Z,7.18
2024-03-24T01:24:12.916Z,7.15
2024-03-24T01:29:31.699Z,7.16
2024-03-24T01:34:51.412Z,7.11
2024-03-24T01:40:11.110Z,7.12
2024-03-24T01:45:30.380Z,7.12
2024-03-24T01:50:49.759Z,7.11
2024-03-24T01:56:08.572Z,7.08
2024-03-24T02:01:27.750Z,7.09
2024-03-24T02:06:47.113Z,7.08
2024-03-24T02:12:06.260Z,7.07
2024-03-24T02:17:25.800Z,7.04
2024-03-24T02:22:45.470Z,7.05
2024-03-24T02:28:03.926Z,7.02
2024-03-24T02:38:42.047Z,7.01
2024-03-24T02:44:00.888Z,7.02
2024-03-24T02:49:20.924Z,6.99
2024-03-24T02:54:39.606Z,6.98
2024-03-24T02:59:58.934Z,6.97
2024-03-24T03:05:18.828Z,6.97
2024-03-24T03:10:38.369Z,6.95
2024-03-24T03:21:17.310Z,6.94
2024-03-24T03:26:36.990Z,6.94
2024-03-24T03:31:56.655Z,6.89
2024-03-24T03:37:15.803Z,6.92
2024-03-24T03:47:54.071Z,6.85
2024-03-24T03:53:13.328Z,6.85
2024-03-24T04:03:52.441Z,6.83
2024-03-24T04:09:11.388Z,6.78
2024-03-24T04:14:31.263Z,6.76
2024-03-24T04:19:50.315Z,6.73
2024-03-24T04:30:28.559Z,6.67
2024-03-24T04:35:47.970Z,6.68
2024-03-24T04:41:07.163Z,6.66
2024-03-24T04:46:26.682Z,6.66
2024-03-24T04:57:04.678Z,6.6
2024-03-24T05:02:23.950Z,6.6
2024-03-24T05:07:43.444Z,6.57
2024-03-24T05:13:03.090Z,6.58
2024-03-24T05:18:22.221Z,6.58
2024-03-24T05:23:41.009Z,6.54
2024-03-24T05:29:00.393Z,6.51
2024-03-24T05:39:38.753Z,6.54
2024-03-24T05:44:57.586Z,6.56
2024-03-24T05:50:16.863Z,6.5
2024-03-24T05:55:35.929Z,6.54
2024-03-24T06:00:55.217Z,6.53
2024-03-24T06:06:14.226Z,6.53
2024-03-24T06:11:33.754Z,6.54
2024-03-24T06:16:52.749Z,6.5
2024-03-24T06:22:12.204Z,6.53
2024-03-24T06:32:50.200Z,6.53
2024-03-24T06:38:09.731Z,6.57
2024-03-24T06:48:48.822Z,6.66
2024-03-24T06:54:08.024Z,6.71
2024-03-24T06:59:27.187Z,6.8
2024-03-24T07:04:46.398Z,6.89
2024-03-24T07:10:06.149Z,6.94
2024-03-24T07:20:44.503Z,7.04
2024-03-24T07:26:04.077Z,7.14
2024-03-24T07:31:22.963Z,7.25
2024-03-24T07:36:42.952Z,7.39
2024-03-24T07:42:01.424Z,7.49
2024-03-24T07:47:21.780Z,7.55
2024-03-24T07:52:39.899Z,7.59
2024-03-24T08:03:18.945Z,7.89
2024-03-24T08:08:39.149Z,7.96
2024-03-24T08:13:56.763Z,7.97
2024-03-24T08:19:16.022Z,8
2024-03-24T08:24:34.981Z,8.06
2024-03-24T08:29:53.760Z,8.13
2024-03-24T08:35:13.493Z,8.16
2024-03-24T08:45:53.828Z,8.24
2024-03-24T08:51:12.795Z,8.3
2024-03-24T08:56:32.447Z,8.3
2024-03-24T09:01:52.689Z,8.37
2024-03-24T09:07:11.469Z,8.35
2024-03-24T09:12:30.492Z,8.39
2024-03-24T09:17:50.371Z,8.41
2024-03-24T09:28:28.618Z,8.43
2024-03-24T09:33:48.365Z,8.45
2024-03-24T09:39:07.972Z,8.47
2024-03-24T09:44:26.124Z,8.47
2024-03-24T09:49:45.808Z,8.47
2024-03-24T09:55:04.106Z,8.47
2024-03-24T10:00:23.888Z,8.5
2024-03-24T10:05:42.664Z,8.5
2024-03-24T10:11:01.742Z,8.47
2024-03-24T10:16:21.305Z,8.47
2024-03-24T10:21:41.034Z,8.47
2024-03-24T10:27:00.412Z,8.51
2024-03-24T10:37:38.358Z,8.52
2024-03-24T10:42:57.885Z,8.52
2024-03-24T10:48:17.053Z,8.52
2024-03-24T10:53:36.103Z,8.51
2024-03-24T10:58:55.988Z,8.51
2024-03-24T11:09:34.575Z,8.57
2024-03-24T11:14:53.848Z,8.62
2024-03-24T11:30:51.891Z,8.68
2024-03-24T11:36:11.686Z,8.72
2024-03-24T11:41:31.777Z,8.76
2024-03-24T11:46:49.711Z,8.78
2024-03-24T11:52:09.127Z,8.79
2024-03-24T12:02:47.907Z,8.82
2024-03-24T12:08:06.406Z,8.82
2024-03-24T12:13:25.715Z,8.85
2024-03-24T12:18:45.047Z,8.85
2024-03-24T12:24:04.300Z,8.88
2024-03-24T12:29:22.949Z,8.85
2024-03-24T12:34:42.253Z,8.88
2024-03-24T12:45:20.141Z,8.97
2024-03-24T12:50:42.183Z,9.03
2024-03-24T12:55:59.456Z,9.12
2024-03-24T13:01:18.798Z,9.16
2024-03-24T13:06:38.049Z,9.2
2024-03-24T13:11:59.574Z,9.2
2024-03-24T13:17:17.003Z,9.18
2024-03-24T13:27:55.510Z,9.18
2024-03-24T13:38:33.353Z,9.16
2024-03-24T13:43:52.324Z,9.22
2024-03-24T13:49:11.676Z,9.22
2024-03-24T13:54:30.648Z,9.27
2024-03-24T13:59:49.852Z,9.33
2024-03-24T14:10:29.109Z,9.35
2024-03-24T14:15:48.349Z,9.39
2024-03-24T14:21:07.485Z,9.43
2024-03-24T14:26:26.765Z,9.39
2024-03-24T14:31:46.353Z,9.39
2024-03-24T14:37:05.957Z,9.39
2024-03-24T14:42:24.893Z,9.39
2024-03-24T14:47:43.980Z,9.37
2024-03-24T14:53:03.347Z,9.39
2024-03-24T14:58:23.011Z,9.42
2024-03-24T15:09:01.948Z,9.46
2024-03-24T15:19:40.767Z,9.47
2024-03-24T15:25:00.468Z,9.47
2024-03-24T15:30:20.251Z,9.46
2024-03-24T15:35:39.148Z,9.46
2024-03-24T15:40:58.106Z,9.46
2024-03-24T15:46:16.626Z,9.43
2024-03-24T15:51:35.540Z,9.39
2024-03-24T16:02:14.864Z,9.35
2024-03-24T16:07:32.779Z,9.33
2024-03-24T16:12:52.222Z,9.32
2024-03-24T16:18:12.403Z,9.26
2024-03-24T16:23:31.947Z,9.26
2024-03-24T16:34:09.767Z,9.18
2024-03-24T16:39:28.214Z,9.14
2024-03-24T16:44:47.019Z,9.09
2024-03-24T16:50:06.319Z,9.08
2024-03-24T16:55:26.039Z,9.03
2024-03-24T17:00:44.989Z,8.97
2024-03-24T17:06:04.469Z,8.95
2024-03-24T17:16:43.058Z,8.83
2024-03-24T17:22:02.669Z,8.81
2024-03-24T17:27:22.030Z,8.75
2024-03-24T17:32:40.404Z,8.68
2024-03-24T17:43:18.313Z,8.62
2024-03-24T17:48:37.868Z,8.58
2024-03-24T17:53:57.606Z,8.47
2024-03-24T17:59:16.774Z,8.42
2024-03-24T18:04:35.585Z,8.39
2024-03-24T18:15:14.979Z,8.28
2024-03-24T18:20:34.960Z,8.24
2024-03-24T18:25:53.438Z,8.18
2024-03-24T18:31:13.274Z,8.14
2024-03-24T18:36:32.930Z,8.1
2024-03-24T18:41:52.410Z,8.06
2024-03-24T18:52:30.936Z,7.97
2024-03-24T19:03:34.586Z,7.97
2024-03-24T19:08:53.709Z,7.87
2024-03-24T19:14:12.683Z,7.82
2024-03-24T19:19:31.566Z,7.77
2024-03-24T19:24:50.356Z,7.74
2024-03-24T19:35:30.272Z,7.72
2024-03-24T19:40:48.365Z,7.65
2024-03-24T19:46:07.362Z,7.62
2024-03-24T19:51:26.396Z,7.62
2024-03-24T19:56:46.078Z,7.58
2024-03-24T20:02:04.777Z,7.56
2024-03-24T20:07:24.637Z,7.55
2024-03-24T20:12:43.910Z,7.49
2024-03-24T20:18:03.534Z,7.51
2024-03-24T20:23:22.429Z,7.45
2024-03-24T20:28:42.024Z,7.45
2024-03-24T20:34:01.947Z,7.39
2024-03-24T20:39:20.709Z,7.36
2024-03-24T20:44:39.676Z,7.33
2024-03-24T20:49:59.490Z,7.31
2024-03-24T20:55:18.547Z,7.28
2024-03-24T21:00:37.408Z,7.26
2024-03-24T21:05:57.114Z,7.25
2024-03-24T21:11:15.955Z,7.19
2024-03-24T21:16:35.494Z,7.21
2024-03-24T21:21:54.612Z,7.16
2024-03-24T21:32:33.044Z,7.14
2024-03-24T21:37:52.030Z,7.11
2024-03-24T21:43:11.483Z,7.12
2024-03-24T21:48:31.115Z,7.08
2024-03-24T21:53:49.708Z,7.07
2024-03-24T21:59:08.741Z,7.07
2024-03-24T22:04:28.156Z,7.07
2024-03-24T22:15:06.197Z,7.01
2024-03-24T22:20:25.497Z,7.01
2024-03-24T22:25:44.698Z,7.01
2024-03-24T22:31:04.147Z,6.98
2024-03-24T22:36:23.182Z,6.95
2024-03-24T22:41:42.879Z,6.95
2024-03-24T22:47:02.313Z,6.94
2024-03-24T22:57:40.402Z,6.92
2024-03-24T23:02:59.500Z,6.92
2024-03-24T23:08:18.676Z,6.89
2024-03-24T23:13:38.374Z,6.89
2024-03-24T23:18:57.231Z,6.88
2024-03-24T23:24:16.750Z,6.89
2024-03-24T23:29:35.619Z,6.84
2024-03-24T23:40:14.036Z,6.84
2024-03-24T23:45:33.711Z,6.81
2024-03-24T23:50:53.075Z,6.81
2024-03-24T23:56:12.531Z,6.81
